^^
Saratoga-Weather Station Historical Data
Daily Summary for April 10, 2021 Units:  Both    English   Metric
Daily Weekly Monthly Yearly Custom
  High: Low: Average:
Temperature: 56.5 °F /  13.6 °C 47.7 °F /  8.7 °C 49.8 °F /  9.9 °C
Dew Point: 47.1 °F /  8.4 °C 44.1 °F /  6.7 °C 46 °F /  7.8 °C
Humidity: 94% 63% 87%
Wind Speed: 11mph /  17.7km/h - 1.3mph /  2.1km/h
Wind Gust: 14mph /  22.5km/h - -
Wind- - SW
Pressure: 29.9 in /  1012.5 hPa 29.8 in /  1010.2 hPa -
Precipitation: 0.14 in /  3.6 mm    
Historical Graphs
 
 
Tabular Data for April 10, 2021
Time Temperature Dew Point Pressure Wind Wind Speed Wind Gust Humidity Rainfall Rate (Hourly) solar
00:03 56.5 °F /  13.6 °C 44.1 °F /  6.7 °C 29.8in /  1010.2hPa NE 0.9mph /  1.4km/h 4mph /  6.4km/h 63% 0in /  0.0mm 0 W/m2
00:08 56.5 °F /  13.6 °C 44.1 °F /  6.7 °C 29.8in /  1010.2hPa West 6mph /  9.7km/h 11mph /  17.7km/h 63% 0in /  0.0mm 0 W/m2
00:13 56.3 °F /  13.5 °C 44.2 °F /  6.8 °C 29.8in /  1010.2hPa NNE 2.9mph /  4.7km/h 4mph /  6.4km/h 64% 0in /  0.0mm 0 W/m2
00:18 56.1 °F /  13.4 °C 44.6 °F /  7 °C 29.8in /  1010.2hPa WNW 6mph /  9.7km/h 14mph /  22.5km/h 65% 0in /  0.0mm 0 W/m2
00:23 56.1 °F /  13.4 °C 44.6 °F /  7 °C 29.8in /  1010.2hPa NNE 2.9mph /  4.7km/h 6mph /  9.7km/h 65% 0in /  0.0mm 0 W/m2
00:28 55.9 °F /  13.3 °C 44.4 °F /  6.9 °C 29.8in /  1010.2hPa North 2mph /  3.2km/h 14mph /  22.5km/h 65% 0in /  0.0mm 0 W/m2
00:33 55.9 °F /  13.3 °C 44.8 °F /  7.1 °C 29.8in /  1010.2hPa East 2.9mph /  4.7km/h 7mph /  11.3km/h 66% 0in /  0.0mm 0 W/m2
00:38 55.8 °F /  13.2 °C 44.6 °F /  7 °C 29.8in /  1010.2hPa NE 6.9mph /  11.1km/h 7mph /  11.3km/h 66% 0in /  0.0mm 0 W/m2
00:43 55.8 °F /  13.2 °C 44.6 °F /  7 °C 29.8in /  1010.2hPa ENE 0.9mph /  1.4km/h 4mph /  6.4km/h 66% 0in /  0.0mm 0 W/m2
00:48 55.6 °F /  13.1 °C 44.4 °F /  6.9 °C 29.8in /  1010.2hPa SW 0.9mph /  1.4km/h 4mph /  6.4km/h 66% 0in /  0.0mm 0 W/m2
00:53 55.6 °F /  13.1 °C 44.8 °F /  7.1 °C 29.8in /  1010.2hPa WSW 2mph /  3.2km/h 11mph /  17.7km/h 67% 0in /  0.0mm 0 W/m2
00:58 55.4 °F /  13 °C 44.6 °F /  7 °C 29.8in /  1010.2hPa WNW 2mph /  3.2km/h 7mph /  11.3km/h 67% 0in /  0.0mm 0 W/m2
01:03 55.4 °F /  13 °C 44.6 °F /  7 °C 29.8in /  1010.2hPa NNE 4mph /  6.4km/h 8mph /  12.9km/h 67% 0in /  0.0mm 0 W/m2
01:08 55.4 °F /  13 °C 44.6 °F /  7 °C 29.8in /  1010.5hPa NW 2.9mph /  4.7km/h 3mph /  4.8km/h 67% 0in /  0.0mm 0 W/m2
01:13 55.4 °F /  13 °C 44.6 °F /  7 °C 29.9in /  1010.8hPa WNW 4.9mph /  7.9km/h 10mph /  16.1km/h 67% 0in /  0.0mm 0 W/m2
01:18 55.2 °F /  12.9 °C 44.8 °F /  7.1 °C 29.9in /  1010.8hPa WSW 2.9mph /  4.7km/h 7mph /  11.3km/h 68% 0in /  0.0mm 0 W/m2
01:23 54.9 °F /  12.7 °C 45.3 °F /  7.4 °C 29.9in /  1010.8hPa West 2mph /  3.2km/h 11mph /  17.7km/h 70% 0in /  0.0mm 0 W/m2
01:28 54.1 °F /  12.3 °C 45.7 °F /  7.6 °C 29.9in /  1010.8hPa West 6.9mph /  11.1km/h 8mph /  12.9km/h 73% 0in /  0.0mm 0 W/m2
01:33 53.8 °F /  12.1 °C 46 °F /  7.8 °C 29.9in /  1010.8hPa West 2.9mph /  4.7km/h 9mph /  14.5km/h 75% 0in /  0.0mm 0 W/m2
01:38 53.2 °F /  11.8 °C 45.9 °F /  7.7 °C 29.9in /  1010.8hPa WNW 4mph /  6.4km/h 5mph /  8km/h 76% 0in /  0.0mm 0 W/m2
01:43 53.1 °F /  11.7 °C 46 °F /  7.8 °C 29.9in /  1010.8hPa WNW 2.9mph /  4.7km/h 4mph /  6.4km/h 77% 0in /  0.0mm 0 W/m2
01:48 52.5 °F /  11.4 °C 46.2 °F /  7.9 °C 29.9in /  1010.8hPa NW 0.9mph /  1.4km/h 5mph /  8km/h 79% 0in /  0.0mm 0 W/m2
01:53 52.3 °F /  11.3 °C 46.4 °F /  8 °C 29.9in /  1010.8hPa NW 0.9mph /  1.4km/h 4mph /  6.4km/h 80% 0in /  0.0mm 0 W/m2
01:58 52.2 °F /  11.2 °C 46.2 °F /  7.9 °C 29.9in /  1010.8hPa West 2.9mph /  4.7km/h 4mph /  6.4km/h 80% 0in /  0.0mm 0 W/m2
02:03 52 °F /  11.1 °C 46.4 °F /  8 °C 29.9in /  1010.8hPa West 2mph /  3.2km/h 4mph /  6.4km/h 81% 0in /  0.0mm 0 W/m2
02:08 52 °F /  11.1 °C 46.4 °F /  8 °C 29.9in /  1010.8hPa WNW 2mph /  3.2km/h 3mph /  4.8km/h 81% 0in /  0.0mm 0 W/m2
02:13 51.8 °F /  11 °C 46.2 °F /  7.9 °C 29.9in /  1010.8hPa Calm   2mph /  3.2km/h 81% 0in /  0.0mm 0 W/m2
02:18 51.6 °F /  10.9 °C 46.2 °F /  7.9 °C 29.9in /  1010.8hPa NW 4mph /  6.4km/h 5mph /  8km/h 82% 0in /  0.0mm 0 W/m2
02:23 51.4 °F /  10.8 °C 46.4 °F /  8 °C 29.9in /  1010.8hPa WNW 0.9mph /  1.4km/h 3mph /  4.8km/h 83% 0in /  0.0mm 0 W/m2
02:28 51.3 °F /  10.7 °C 46.6 °F /  8.1 °C 29.9in /  1010.8hPa Calm     84% 0in /  0.0mm 0 W/m2
02:33 51.3 °F /  10.7 °C 46.9 °F /  8.3 °C 29.9in /  1010.8hPa West 2.9mph /  4.7km/h 3mph /  4.8km/h 85% 0in /  0.0mm 0 W/m2
02:38 50.9 °F /  10.5 °C 46.6 °F /  8.1 °C 29.9in /  1010.8hPa WNW 0.9mph /  1.4km/h 2mph /  3.2km/h 85% 0in /  0.0mm 0 W/m2
02:43 50.7 °F /  10.4 °C 46.8 °F /  8.2 °C 29.9in /  1010.8hPa West 2.9mph /  4.7km/h 3mph /  4.8km/h 86% 0in /  0.0mm 0 W/m2
02:48 50.5 °F /  10.3 °C 46.8 °F /  8.2 °C 29.9in /  1010.8hPa West 0.9mph /  1.4km/h 2mph /  3.2km/h 87% 0in /  0.0mm 0 W/m2
02:53 50.4 °F /  10.2 °C 46.6 °F /  8.1 °C 29.9in /  1010.8hPa Calm   4mph /  6.4km/h 87% 0in /  0.0mm 0 W/m2
02:58 50.4 °F /  10.2 °C 46.9 °F /  8.3 °C 29.9in /  1011.2hPa Calm   3mph /  4.8km/h 88% 0in /  0.0mm 0 W/m2
03:03 50.2 °F /  10.1 °C 46.8 °F /  8.2 °C 29.9in /  1011.2hPa Calm   1mph /  1.6km/h 88% 0in /  0.0mm 0 W/m2
03:08 50.2 °F /  10.1 °C 46.8 °F /  8.2 °C 29.9in /  1011.2hPa West 2mph /  3.2km/h 2mph /  3.2km/h 88% 0in /  0.0mm 0 W/m2
03:13 50 °F /  10 °C 46.9 °F /  8.3 °C 29.9in /  1011.2hPa West 2mph /  3.2km/h 2mph /  3.2km/h 89% 0.01in /  0.2mm 0 W/m2
03:19 49.8 °F /  9.9 °C 46.8 °F /  8.2 °C 29.9in /  1011.2hPa Calm   1mph /  1.6km/h 89% 0.01in /  0.2mm 0 W/m2
03:24 49.8 °F /  9.9 °C 46.8 °F /  8.2 °C 29.9in /  1011.2hPa Calm   1mph /  1.6km/h 89% 0.02in /  0.5mm 0 W/m2
03:29 49.6 °F /  9.8 °C 46.8 °F /  8.2 °C 29.9in /  1011.2hPa Calm     90% 0.02in /  0.5mm 0 W/m2
03:34 49.6 °F /  9.8 °C 46.8 °F /  8.2 °C 29.9in /  1011.2hPa Calm     90% 0.02in /  0.5mm 0 W/m2
03:44 49.5 °F /  9.7 °C 46.6 °F /  8.1 °C 29.9in /  1011.2hPa West 2mph /  3.2km/h 4mph /  6.4km/h 90% 0.02in /  0.5mm 0 W/m2
03:49 49.3 °F /  9.6 °C 46.8 °F /  8.2 °C 29.9in /  1011.2hPa West 0.9mph /  1.4km/h 3mph /  4.8km/h 91% 0.03in /  0.8mm 0 W/m2
03:54 49.3 °F /  9.6 °C 46.8 °F /  8.2 °C 29.9in /  1011.2hPa Calm   4mph /  6.4km/h 91% 0.03in /  0.8mm 0 W/m2
03:59 49.1 °F /  9.5 °C 46.6 °F /  8.1 °C 29.9in /  1011.2hPa WSW 0.9mph /  1.4km/h 4mph /  6.4km/h 91% 0.03in /  0.8mm 0 W/m2
04:04 48.9 °F /  9.4 °C 46.4 °F /  8 °C 29.9in /  1011.5hPa WSW 0.9mph /  1.4km/h 3mph /  4.8km/h 91% 0.03in /  0.8mm 0 W/m2
04:09 48.9 °F /  9.4 °C 46.4 °F /  8 °C 29.9in /  1011.5hPa Calm   4mph /  6.4km/h 91% 0.03in /  0.8mm 0 W/m2
04:14 48.7 °F /  9.3 °C 46.6 °F /  8.1 °C 29.9in /  1011.2hPa Calm   1mph /  1.6km/h 92% 0.02in /  0.5mm 0 W/m2
04:19 48.7 °F /  9.3 °C 46.6 °F /  8.1 °C 29.9in /  1011.5hPa WSW 0.9mph /  1.4km/h 2mph /  3.2km/h 92% 0.02in /  0.5mm 0 W/m2
04:24 48.7 °F /  9.3 °C 46.6 °F /  8.1 °C 29.9in /  1011.5hPa WNW 0.9mph /  1.4km/h 3mph /  4.8km/h 92% 0.02in /  0.5mm 0 W/m2
04:29 48.6 °F /  9.2 °C 46.4 °F /  8 °C 29.9in /  1011.5hPa Calm   1mph /  1.6km/h 92% 0.02in /  0.5mm 0 W/m2
04:34 48.6 °F /  9.2 °C 46.4 °F /  8 °C 29.9in /  1011.5hPa Calm     92% 0.02in /  0.5mm 0 W/m2
04:39 48.6 °F /  9.2 °C 46.4 °F /  8 °C 29.9in /  1011.5hPa Calm   1mph /  1.6km/h 92% 0.02in /  0.5mm 0 W/m2
04:44 48.4 °F /  9.1 °C 46.2 °F /  7.9 °C 29.9in /  1011.2hPa Calm     92% 0.02in /  0.5mm 0 W/m2
04:49 48.4 °F /  9.1 °C 46.2 °F /  7.9 °C 29.9in /  1011.2hPa Calm     92% 0.01in /  0.2mm 0 W/m2
04:54 48.4 °F /  9.1 °C 46.2 °F /  7.9 °C 29.9in /  1011.2hPa Calm     92% 0.01in /  0.2mm 0 W/m2
04:59 48.4 °F /  9.1 °C 46.4 °F /  8 °C 29.9in /  1011.5hPa Calm     93% 0.01in /  0.2mm 0 W/m2
05:04 48.4 °F /  9.1 °C 46.4 °F /  8 °C 29.9in /  1011.5hPa Calm   1mph /  1.6km/h 93% 0.01in /  0.2mm 0 W/m2
05:09 48.4 °F /  9.1 °C 46.4 °F /  8 °C 29.9in /  1011.5hPa Calm   1mph /  1.6km/h 93% 0.01in /  0.2mm 0 W/m2
05:14 48.4 °F /  9.1 °C 46.4 °F /  8 °C 29.9in /  1011.5hPa West 0.9mph /  1.4km/h 1mph /  1.6km/h 93% 0.01in /  0.2mm 0 W/m2
05:19 48.4 °F /  9.1 °C 46.4 °F /  8 °C 29.9in /  1011.5hPa Calm   2mph /  3.2km/h 93% 0.01in /  0.2mm 0 W/m2
05:24 48.4 °F /  9.1 °C 46.4 °F /  8 °C 29.9in /  1011.5hPa Calm   1mph /  1.6km/h 93% 0.01in /  0.2mm 0 W/m2
05:29 48.4 °F /  9.1 °C 46.4 °F /  8 °C 29.9in /  1011.5hPa Calm   1mph /  1.6km/h 93% 0.01in /  0.2mm 0 W/m2
05:34 48.4 °F /  9.1 °C 46.4 °F /  8 °C 29.9in /  1011.5hPa Calm     93% 0.01in /  0.2mm 0 W/m2
05:39 48.4 °F /  9.1 °C 46.4 °F /  8 °C 29.9in /  1011.5hPa Calm     93% 0in /  0.0mm 0 W/m2
05:44 48.4 °F /  9.1 °C 46.4 °F /  8 °C 29.9in /  1011.5hPa Calm   1mph /  1.6km/h 93% 0in /  0.0mm 0 W/m2
05:49 48.4 °F /  9.1 °C 46.4 °F /  8 °C 29.9in /  1011.5hPa Calm   1mph /  1.6km/h 93% 0in /  0.0mm 0 W/m2
05:54 48.4 °F /  9.1 °C 46.4 °F /  8 °C 29.9in /  1011.5hPa Calm     93% 0in /  0.0mm 0 W/m2
05:59 48.4 °F /  9.1 °C 46.4 °F /  8 °C 29.9in /  1011.5hPa Calm   1mph /  1.6km/h 93% 0in /  0.0mm 0 W/m2
06:04 48.4 °F /  9.1 °C 46.4 °F /  8 °C 29.9in /  1011.5hPa Calm     93% 0in /  0.0mm 0 W/m2
06:09 48.4 °F /  9.1 °C 46.4 °F /  8 °C 29.9in /  1011.5hPa East 2.9mph /  4.7km/h 3mph /  4.8km/h 93% 0in /  0.0mm 0 W/m2
06:14 48.4 °F /  9.1 °C 46.4 °F /  8 °C 29.9in /  1011.2hPa Calm   1mph /  1.6km/h 93% 0.01in /  0.2mm 0 W/m2
06:19 48.4 °F /  9.1 °C 46.4 °F /  8 °C 29.9in /  1011.5hPa East 3mph /  4.8km/h 3mph /  4.8km/h 93% 0.01in /  0.2mm 0 W/m2
06:24 48.4 °F /  9.1 °C 46.4 °F /  8 °C 29.9in /  1011.5hPa Calm   1mph /  1.6km/h 93% 0.01in /  0.2mm 0 W/m2
06:29 48.4 °F /  9.1 °C 46.4 °F /  8 °C 29.9in /  1011.5hPa WNW 2mph /  3.2km/h 3mph /  4.8km/h 93% 0.01in /  0.2mm 0 W/m2
06:34 48.4 °F /  9.1 °C 46.8 °F /  8.2 °C 29.9in /  1011.9hPa Calm     94% 0.01in /  0.2mm 0 W/m2
06:39 48.4 °F /  9.1 °C 46.8 °F /  8.2 °C 29.9in /  1011.9hPa Calm   3mph /  4.8km/h 94% 0.01in /  0.2mm 0 W/m2
06:44 48.4 °F /  9.1 °C 46.8 °F /  8.2 °C 29.9in /  1011.9hPa Calm   1mph /  1.6km/h 94% 0.01in /  0.2mm 0 W/m2
06:49 48.4 °F /  9.1 °C 46.8 °F /  8.2 °C 29.9in /  1011.9hPa WNW 2mph /  3.2km/h 3mph /  4.8km/h 94% 0.01in /  0.2mm 0 W/m2
06:54 48.6 °F /  9.2 °C 46.9 °F /  8.3 °C 29.9in /  1011.9hPa Calm     94% 0.02in /  0.5mm 0 W/m2
06:59 48.6 °F /  9.2 °C 46.9 °F /  8.3 °C 29.9in /  1011.9hPa Calm   3mph /  4.8km/h 94% 0.02in /  0.5mm 0 W/m2
07:04 48.6 °F /  9.2 °C 46.6 °F /  8.1 °C 29.9in /  1011.9hPa Calm     93% 0.02in /  0.5mm 0 W/m2
07:09 48.6 °F /  9.2 °C 46.6 °F /  8.1 °C 29.9in /  1011.9hPa Calm     93% 0.02in /  0.5mm 0 W/m2
07:14 48.6 °F /  9.2 °C 46.6 °F /  8.1 °C 29.9in /  1011.9hPa Calm   2mph /  3.2km/h 93% 0.02in /  0.5mm 0 W/m2
07:19 48.7 °F /  9.3 °C 46.8 °F /  8.2 °C 29.9in /  1011.9hPa NE 0.9mph /  1.4km/h 2mph /  3.2km/h 93% 0.02in /  0.5mm 7 W/m2
07:24 48.7 °F /  9.3 °C 46.8 °F /  8.2 °C 29.9in /  1011.9hPa Calm   2mph /  3.2km/h 93% 0.02in /  0.5mm 7 W/m2
07:29 48.7 °F /  9.3 °C 46.8 °F /  8.2 °C 29.9in /  1011.9hPa NE 0.9mph /  1.4km/h 3mph /  4.8km/h 93% 0.02in /  0.5mm 14 W/m2
07:34 48.7 °F /  9.3 °C 46.8 °F /  8.2 °C 29.9in /  1011.9hPa Calm   3mph /  4.8km/h 93% 0.02in /  0.5mm 14 W/m2
07:39 48.7 °F /  9.3 °C 46.8 °F /  8.2 °C 29.9in /  1011.9hPa Calm   2mph /  3.2km/h 93% 0.02in /  0.5mm 9 W/m2
07:44 48.7 °F /  9.3 °C 46.8 °F /  8.2 °C 29.9in /  1012.2hPa Calm   1mph /  1.6km/h 93% 0.02in /  0.5mm 7 W/m2
07:49 48.9 °F /  9.4 °C 46.9 °F /  8.3 °C 29.9in /  1012.2hPa NNE 0.9mph /  1.4km/h 2mph /  3.2km/h 93% 0.02in /  0.5mm 5 W/m2
07:54 48.9 °F /  9.4 °C 46.9 °F /  8.3 °C 29.9in /  1012.2hPa NW 0.9mph /  1.4km/h 3mph /  4.8km/h 93% 0.02in /  0.5mm 0 W/m2
07:59 48.9 °F /  9.4 °C 46.9 °F /  8.3 °C 29.9in /  1012.2hPa Calm     93% 0.02in /  0.5mm 9 W/m2
08:04 48.9 °F /  9.4 °C 46.9 °F /  8.3 °C 29.9in /  1012.2hPa NNW 0.9mph /  1.4km/h 3mph /  4.8km/h 93% 0.02in /  0.5mm 5 W/m2
08:09 48.9 °F /  9.4 °C 46.9 °F /  8.3 °C 29.9in /  1012.2hPa Calm   1mph /  1.6km/h 93% 0.02in /  0.5mm 5 W/m2
08:14 48.9 °F /  9.4 °C 46.9 °F /  8.3 °C 29.9in /  1012.2hPa Calm   3mph /  4.8km/h 93% 0.02in /  0.5mm 5 W/m2
08:19 48.9 °F /  9.4 °C 46.9 °F /  8.3 °C 29.9in /  1012.2hPa Calm   1mph /  1.6km/h 93% 0.02in /  0.5mm 5 W/m2
08:24 48.7 °F /  9.3 °C 46.8 °F /  8.2 °C 29.9in /  1012.2hPa Calm   2mph /  3.2km/h 93% 0.03in /  0.8mm 5 W/m2
08:29 48.7 °F /  9.3 °C 46.8 °F /  8.2 °C 29.9in /  1012.2hPa West 2mph /  3.2km/h 2mph /  3.2km/h 93% 0.03in /  0.8mm 5 W/m2
08:34 48.7 °F /  9.3 °C 46.8 °F /  8.2 °C 29.9in /  1012.2hPa Calm     93% 0.04in /  1.0mm 0 W/m2
08:39 48.7 °F /  9.3 °C 46.8 °F /  8.2 °C 29.9in /  1012.2hPa NW 2mph /  3.2km/h 2mph /  3.2km/h 93% 0.05in /  1.3mm 0 W/m2
08:44 48.6 °F /  9.2 °C 46.6 °F /  8.1 °C 29.9in /  1012.2hPa Calm     93% 0.05in /  1.3mm 0 W/m2
08:49 48.6 °F /  9.2 °C 46.6 °F /  8.1 °C 29.9in /  1012.2hPa NNE 0.9mph /  1.4km/h 2mph /  3.2km/h 93% 0.06in /  1.5mm 5 W/m2
08:54 48.6 °F /  9.2 °C 46.6 °F /  8.1 °C 29.9in /  1012.2hPa North 0.9mph /  1.4km/h 2mph /  3.2km/h 93% 0.06in /  1.5mm 5 W/m2
08:59 48.6 °F /  9.2 °C 46.6 °F /  8.1 °C 29.9in /  1012.2hPa Calm   6mph /  9.7km/h 93% 0.06in /  1.5mm 9 W/m2
09:04 48.6 °F /  9.2 °C 46.6 °F /  8.1 °C 29.9in /  1012.2hPa NW 11mph /  17.7km/h 11mph /  17.7km/h 93% 0.06in /  1.5mm 19 W/m2
09:09 48.6 °F /  9.2 °C 46.6 °F /  8.1 °C 29.9in /  1012.2hPa NW 4mph /  6.4km/h 8mph /  12.9km/h 93% 0.06in /  1.5mm 28 W/m2
09:14 48.6 °F /  9.2 °C 46.6 °F /  8.1 °C 29.9in /  1012.2hPa NW 2.9mph /  4.7km/h 3mph /  4.8km/h 93% 0.06in /  1.5mm 40 W/m2
09:19 48.4 °F /  9.1 °C 46.2 °F /  7.9 °C 29.9in /  1012.2hPa North 2mph /  3.2km/h 5mph /  8km/h 92% 0.05in /  1.3mm 54 W/m2
09:24 48 °F /  8.9 °C 45.9 °F /  7.7 °C 29.9in /  1012.2hPa SW 2mph /  3.2km/h 3mph /  4.8km/h 92% 0.04in /  1.0mm 62 W/m2
09:29 47.8 °F /  8.8 °C 45.3 °F /  7.4 °C 29.9in /  1012.2hPa Calm   2mph /  3.2km/h 91% 0.05in /  1.3mm 51 W/m2
09:34 47.8 °F /  8.8 °C 45.7 °F /  7.6 °C 29.9in /  1012.2hPa NNE 0.9mph /  1.4km/h 4mph /  6.4km/h 92% 0.03in /  0.8mm 56 W/m2
09:39 47.8 °F /  8.8 °C 45.7 °F /  7.6 °C 29.9in /  1012.2hPa NE 0.9mph /  1.4km/h 3mph /  4.8km/h 92% 0.02in /  0.5mm 62 W/m2
09:45 47.7 °F /  8.7 °C 45.1 °F /  7.3 °C 29.9in /  1012.2hPa NW 2mph /  3.2km/h 3mph /  4.8km/h 91% 0.02in /  0.5mm 69 W/m2
09:50 47.7 °F /  8.7 °C 45.1 °F /  7.3 °C 29.9in /  1012.2hPa WNW 0.9mph /  1.4km/h 3mph /  4.8km/h 91% 0.02in /  0.5mm 53 W/m2
09:55 47.7 °F /  8.7 °C 45.1 °F /  7.3 °C 29.9in /  1012.2hPa NNW 2mph /  3.2km/h 3mph /  4.8km/h 91% 0.02in /  0.5mm 46 W/m2
10:00 47.7 °F /  8.7 °C 45.1 °F /  7.3 °C 29.9in /  1012.2hPa NW 0.9mph /  1.4km/h 4mph /  6.4km/h 91% 0.01in /  0.2mm 40 W/m2
10:05 47.7 °F /  8.7 °C 45 °F /  7.2 °C 29.9in /  1012.2hPa NNW 2mph /  3.2km/h 2mph /  3.2km/h 90% 0.01in /  0.2mm 46 W/m2
10:10 47.7 °F /  8.7 °C 45 °F /  7.2 °C 29.9in /  1012.2hPa North 2.9mph /  4.7km/h 3mph /  4.8km/h 90% 0.01in /  0.2mm 46 W/m2
10:15 47.7 °F /  8.7 °C 45.1 °F /  7.3 °C 29.9in /  1012.2hPa NE 4mph /  6.4km/h 4mph /  6.4km/h 91% 0.01in /  0.2mm 49 W/m2
10:20 47.7 °F /  8.7 °C 45 °F /  7.2 °C 29.9in /  1012.2hPa NE 2mph /  3.2km/h 5mph /  8km/h 90% 0.01in /  0.2mm 46 W/m2
10:25 47.7 °F /  8.7 °C 45 °F /  7.2 °C 29.9in /  1012.2hPa Calm   2mph /  3.2km/h 90% 0.01in /  0.2mm 49 W/m2
10:30 47.7 °F /  8.7 °C 45 °F /  7.2 °C 29.9in /  1012.2hPa North 0.9mph /  1.4km/h 5mph /  8km/h 90% 0in /  0.0mm 49 W/m2
10:35 47.8 °F /  8.8 °C 45 °F /  7.2 °C 29.9in /  1012.5hPa NNE 0.9mph /  1.4km/h 4mph /  6.4km/h 90% 0in /  0.0mm 54 W/m2
10:40 47.8 °F /  8.8 °C 45 °F /  7.2 °C 29.9in /  1012.5hPa NE 2mph /  3.2km/h 4mph /  6.4km/h 90% 0in /  0.0mm 54 W/m2
10:45 47.8 °F /  8.8 °C 45 °F /  7.2 °C 29.9in /  1012.5hPa NE 0.9mph /  1.4km/h 2mph /  3.2km/h 90% 0in /  0.0mm 62 W/m2
10:50 47.8 °F /  8.8 °C 45 °F /  7.2 °C 29.9in /  1012.5hPa ENE 2mph /  3.2km/h 3mph /  4.8km/h 90% 0in /  0.0mm 74 W/m2
10:55 47.8 °F /  8.8 °C 45 °F /  7.2 °C 29.9in /  1012.5hPa NE 2mph /  3.2km/h 3mph /  4.8km/h 90% 0in /  0.0mm 79 W/m2
11:00 48 °F /  8.9 °C 45.1 °F /  7.3 °C 29.9in /  1012.5hPa NE 2mph /  3.2km/h 3mph /  4.8km/h 90% 0in /  0.0mm 88 W/m2
11:05 48 °F /  8.9 °C 45.1 °F /  7.3 °C 29.9in /  1012.5hPa East 2mph /  3.2km/h 3mph /  4.8km/h 90% 0in /  0.0mm 105 W/m2
11:10 48 °F /  8.9 °C 45.1 °F /  7.3 °C 29.9in /  1012.5hPa North 2mph /  3.2km/h 3mph /  4.8km/h 90% 0in /  0.0mm 116 W/m2
11:15 48.4 °F /  9.1 °C 45.5 °F /  7.5 °C 29.9in /  1012.5hPa East 2mph /  3.2km/h 4mph /  6.4km/h 90% 0in /  0.0mm 153 W/m2
11:20 48.6 °F /  9.2 °C 45.7 °F /  7.6 °C 29.9in /  1012.5hPa Calm   2mph /  3.2km/h 90% 0in /  0.0mm 183 W/m2
11:25 48.7 °F /  9.3 °C 45.9 °F /  7.7 °C 29.9in /  1012.2hPa NW 0.9mph /  1.4km/h 4mph /  6.4km/h 90% 0in /  0.0mm 135 W/m2
11:30 48.9 °F /  9.4 °C 46 °F /  7.8 °C 29.9in /  1012.5hPa NW 0.9mph /  1.4km/h 2mph /  3.2km/h 90% 0in /  0.0mm 86 W/m2
11:35 48.9 °F /  9.4 °C 46 °F /  7.8 °C 29.9in /  1012.2hPa North 2mph /  3.2km/h 3mph /  4.8km/h 90% 0in /  0.0mm 102 W/m2
11:40 48.9 °F /  9.4 °C 45.9 °F /  7.7 °C 29.9in /  1012.2hPa Calm   3mph /  4.8km/h 89% 0in /  0.0mm 100 W/m2
11:45 49.1 °F /  9.5 °C 46.2 °F /  7.9 °C 29.9in /  1012.2hPa NNW 0.9mph /  1.4km/h 2mph /  3.2km/h 90% 0in /  0.0mm 91 W/m2
11:50 49.3 °F /  9.6 °C 46.4 °F /  8 °C 29.9in /  1012.2hPa Calm   3mph /  4.8km/h 90% 0in /  0.0mm 146 W/m2
11:55 49.5 °F /  9.7 °C 46.6 °F /  8.1 °C 29.9in /  1012.2hPa Calm   3mph /  4.8km/h 90% 0in /  0.0mm 141 W/m2
12:00 49.6 °F /  9.8 °C 46.8 °F /  8.2 °C 29.9in /  1012.2hPa North 0.9mph /  1.4km/h 2mph /  3.2km/h 90% 0in /  0.0mm 137 W/m2
12:05 49.6 °F /  9.8 °C 46.6 °F /  8.1 °C 29.9in /  1012.2hPa Calm   1mph /  1.6km/h 89% 0in /  0.0mm 139 W/m2
12:10 49.8 °F /  9.9 °C 46.8 °F /  8.2 °C 29.9in /  1012.2hPa NE 2mph /  3.2km/h 3mph /  4.8km/h 89% 0in /  0.0mm 165 W/m2
12:15 49.8 °F /  9.9 °C 46.8 °F /  8.2 °C 29.9in /  1012.2hPa Calm   3mph /  4.8km/h 89% 0in /  0.0mm 156 W/m2
12:20 50 °F /  10 °C 46.9 °F /  8.3 °C 29.9in /  1012.2hPa Calm   3mph /  4.8km/h 89% 0in /  0.0mm 163 W/m2
12:25 50.2 °F /  10.1 °C 47.1 °F /  8.4 °C 29.9in /  1011.9hPa NNW 2.9mph /  4.7km/h 3mph /  4.8km/h 89% 0in /  0.0mm 121 W/m2
12:30 50.2 °F /  10.1 °C 47.1 °F /  8.4 °C 29.9in /  1012.2hPa Calm   3mph /  4.8km/h 89% 0in /  0.0mm 111 W/m2
12:35 50.2 °F /  10.1 °C 47.1 °F /  8.4 °C 29.9in /  1011.9hPa Calm   3mph /  4.8km/h 89% 0in /  0.0mm 134 W/m2
12:40 50.2 °F /  10.1 °C 46.8 °F /  8.2 °C 29.9in /  1011.9hPa WSW 4.9mph /  7.9km/h 11mph /  17.7km/h 88% 0in /  0.0mm 139 W/m2
12:45 50.2 °F /  10.1 °C 46.8 °F /  8.2 °C 29.9in /  1011.9hPa NW 2mph /  3.2km/h 3mph /  4.8km/h 88% 0in /  0.0mm 139 W/m2
Juneau County Weather
Compliments of Weather Underground - 4 mb